createdAt,value
2023-01-20T00:01:22.860Z,13.93
2023-01-20T00:03:50.609Z,12.20
2023-01-20T00:06:17.065Z,13.10
2023-01-20T00:08:43.612Z,12.93
2023-01-20T00:11:12.902Z,12.85
2023-01-20T00:13:39.658Z,13.13
2023-01-20T00:16:08.825Z,13.10
2023-01-20T00:18:35.948Z,12.43
2023-01-20T00:21:13.637Z,13.30
2023-01-20T00:23:40.972Z,13.40
2023-01-20T00:26:16.233Z,13.40
2023-01-20T00:28:43.560Z,12.48
2023-01-20T00:31:30.636Z,14.20
2023-01-20T00:33:59.897Z,13.77
2023-01-20T00:36:28.232Z,14.00
2023-01-20T00:38:55.218Z,12.63
2023-01-20T00:41:21.583Z,12.45
2023-01-20T00:43:48.163Z,13.70
2023-01-20T00:46:15.338Z,13.32
2023-01-20T00:48:42.141Z,14.10
2023-01-20T00:51:09.640Z,14.55
2023-01-20T00:53:36.605Z,13.65
2023-01-20T00:56:03.583Z,13.70
2023-01-20T00:58:30.224Z,14.98
2023-01-20T01:00:58.636Z,13.65
2023-01-20T01:03:25.426Z,14.10
2023-01-20T01:05:51.837Z,13.70
2023-01-20T01:08:18.265Z,14.32
2023-01-20T01:10:44.670Z,15.15
2023-01-20T01:13:11.209Z,14.13
2023-01-20T01:15:37.811Z,16.05
2023-01-20T01:18:04.928Z,16.98
2023-01-20T01:20:31.679Z,16.30
2023-01-20T01:22:58.168Z,15.60
2023-01-20T01:25:24.690Z,17.60
2023-01-20T01:27:51.078Z,15.98
2023-01-20T01:30:17.657Z,17.25
2023-01-20T01:32:44.159Z,17.60
2023-01-20T01:35:10.733Z,18.73
2023-01-20T01:37:37.258Z,19.40
2023-01-20T01:40:04.082Z,20.95
2023-01-20T01:42:30.481Z,21.10
2023-01-20T01:45:12.922Z,20.25
2023-01-20T01:47:44.376Z,20.90
2023-01-20T01:50:25.055Z,22.60
2023-01-20T01:52:54.170Z,22.20
2023-01-20T01:55:25.811Z,24.35
2023-01-20T01:57:53.467Z,24.60
2023-01-20T02:00:20.641Z,24.77
2023-01-20T02:02:47.198Z,25.30
2023-01-20T02:05:16.137Z,28.13
2023-01-20T02:07:46.226Z,27.08
2023-01-20T02:10:14.041Z,28.52
2023-01-20T02:12:43.193Z,30.98
2023-01-20T02:15:09.927Z,28.95
2023-01-20T02:18:01.221Z,30.38
2023-01-20T02:20:50.445Z,31.55
2023-01-20T02:23:35.779Z,31.73
2023-01-20T02:26:25.525Z,35.30
2023-01-20T02:29:29.970Z,32.40
2023-01-20T02:32:15.901Z,35.45
2023-01-20T02:35:03.484Z,38.08
2023-01-20T02:37:40.433Z,40.08
2023-01-20T02:40:30.422Z,37.30
2023-01-20T02:43:17.504Z,39.08
2023-01-20T02:46:01.714Z,40.80
2023-01-20T02:48:35.743Z,40.25
2023-01-20T02:51:36.266Z,40.50
2023-01-20T02:54:08.221Z,41.10
2023-01-20T02:56:36.466Z,42.92
2023-01-20T02:59:11.008Z,42.97
2023-01-20T03:01:45.337Z,45.25
2023-01-20T03:04:16.451Z,44.78
2023-01-20T03:06:49.378Z,45.20
2023-01-20T03:09:21.204Z,43.47
2023-01-20T03:11:56.355Z,44.85
2023-01-20T03:14:23.332Z,47.55
2023-01-20T03:16:50.452Z,47.58
2023-01-20T03:19:20.534Z,52.28
2023-01-20T03:24:14.221Z,52.85
2023-01-20T03:26:41.106Z,55.20
2023-01-20T03:29:11.488Z,55.15
2023-01-20T03:31:46.759Z,53.97
2023-01-20T03:34:17.814Z,57.15
2023-01-20T03:36:45.938Z,56.30
2023-01-20T03:39:12.885Z,55.95
2023-01-20T03:42:01.067Z,50.45
2023-01-20T03:44:30.095Z,53.63
2023-01-20T03:47:29.041Z,53.38
2023-01-20T03:50:13.391Z,48.25
2023-01-20T03:52:54.448Z,50.25
2023-01-20T03:55:34.155Z,57.13
2023-01-20T03:58:04.884Z,57.00
2023-01-20T04:00:37.962Z,54.03
2023-01-20T04:03:11.790Z,55.95
2023-01-20T04:05:39.791Z,56.05
2023-01-20T04:08:09.363Z,60.72
2023-01-20T04:10:40.286Z,55.60
2023-01-20T04:13:06.763Z,55.17
2023-01-20T04:15:37.424Z,56.60
2023-01-20T04:18:23.564Z,58.28
2023-01-20T04:21:02.260Z,53.25
2023-01-20T04:23:48.978Z,56.13
2023-01-20T04:26:15.482Z,50.40
2023-01-20T04:28:42.154Z,52.47
2023-01-20T04:31:18.175Z,51.95
2023-01-20T04:33:51.628Z,48.30
2023-01-20T04:36:18.053Z,52.28
2023-01-20T04:38:44.470Z,47.75
2023-01-20T04:41:11.759Z,50.30
2023-01-20T04:43:38.220Z,54.53
2023-01-20T04:46:05.040Z,52.30
2023-01-20T04:48:31.431Z,50.13
2023-01-20T04:50:57.938Z,50.67
2023-01-20T04:53:24.378Z,49.50
2023-01-20T04:55:50.798Z,49.70
2023-01-20T04:58:17.200Z,51.05
2023-01-20T05:00:43.788Z,51.50
2023-01-20T05:03:10.533Z,49.65
2023-01-20T05:05:36.983Z,50.72
2023-01-20T05:08:05.287Z,49.97
2023-01-20T05:10:32.885Z,50.75
2023-01-20T05:12:59.983Z,49.33
2023-01-20T05:15:26.617Z,46.70
2023-01-20T05:17:53.060Z,50.53
2023-01-20T05:20:20.728Z,50.97
2023-01-20T05:22:48.152Z,46.28
2023-01-20T05:25:14.967Z,51.25
2023-01-20T05:27:41.623Z,46.00
2023-01-20T05:30:08.925Z,50.35
2023-01-20T05:32:35.337Z,48.35
2023-01-20T05:35:01.743Z,49.33
2023-01-20T05:37:28.352Z,48.53
2023-01-20T05:39:54.784Z,49.08
2023-01-20T05:42:21.166Z,47.08
2023-01-20T05:44:47.621Z,46.95
2023-01-20T05:47:14.187Z,45.17
2023-01-20T05:49:40.600Z,46.17
2023-01-20T05:52:07.033Z,46.10
2023-01-20T05:54:33.420Z,42.95
2023-01-20T05:56:59.869Z,44.40
2023-01-20T05:59:26.397Z,42.05
2023-01-20T06:01:52.786Z,42.28
2023-01-20T06:04:19.191Z,41.47
2023-01-20T06:06:45.586Z,45.00
2023-01-20T06:09:12.037Z,43.92
2023-01-20T06:11:38.449Z,43.35
2023-01-20T06:14:05.021Z,42.38
2023-01-20T06:16:31.532Z,41.22
2023-01-20T06:18:58.092Z,43.33
2023-01-20T06:21:24.948Z,47.13
2023-01-20T06:23:52.619Z,41.28
2023-01-20T06:26:19.051Z,41.10
2023-01-20T06:28:45.489Z,44.10
2023-01-20T06:31:14.761Z,43.58
2023-01-20T06:33:42.414Z,41.30
2023-01-20T06:36:13.405Z,45.38
2023-01-20T06:38:39.944Z,42.25
2023-01-20T06:41:10.395Z,42.28
2023-01-20T06:43:40.040Z,38.92
2023-01-20T06:46:09.771Z,41.58
2023-01-20T06:48:37.045Z,44.85
2023-01-20T06:51:07.193Z,41.15
2023-01-20T06:56:01.573Z,43.13
2023-01-20T06:58:31.026Z,41.90
2023-01-20T07:00:58.740Z,41.85
2023-01-20T07:03:25.248Z,44.10
2023-01-20T07:05:56.423Z,47.08
2023-01-20T07:08:22.880Z,44.70
2023-01-20T07:10:49.301Z,42.13
2023-01-20T07:13:15.737Z,41.75
2023-01-20T07:15:42.118Z,41.83
2023-01-20T07:18:08.586Z,39.83
2023-01-20T07:20:35.318Z,43.50
2023-01-20T07:23:02.739Z,44.35
2023-01-20T07:25:29.226Z,41.35
2023-01-20T07:27:57.656Z,43.67
2023-01-20T07:30:24.636Z,41.15
2023-01-20T07:32:51.539Z,42.20
2023-01-20T07:35:18.008Z,38.70
2023-01-20T07:37:44.426Z,43.72
2023-01-20T07:40:11.563Z,41.00
2023-01-20T07:42:38.457Z,37.63
2023-01-20T07:45:05.825Z,41.00
2023-01-20T07:47:32.303Z,38.05
2023-01-20T07:49:58.766Z,40.70
2023-01-20T07:52:25.135Z,37.53
2023-01-20T07:54:51.529Z,43.90
2023-01-20T07:57:17.948Z,40.10
2023-01-20T07:59:44.320Z,41.42
2023-01-20T08:02:10.767Z,40.13
2023-01-20T08:04:37.281Z,39.85
2023-01-20T08:07:04.023Z,37.17
2023-01-20T08:09:30.393Z,37.40
2023-01-20T08:11:56.854Z,40.03
2023-01-20T08:14:23.315Z,39.38
2023-01-20T08:16:50.289Z,37.13
2023-01-20T08:19:16.777Z,36.97
2023-01-20T08:21:43.188Z,35.67
2023-01-20T08:24:10.562Z,37.28
2023-01-20T08:26:37.069Z,36.22
2023-01-20T08:29:08.962Z,34.80
2023-01-20T08:31:35.930Z,37.85
2023-01-20T08:34:04.331Z,35.25
2023-01-20T08:36:34.104Z,35.63
2023-01-20T08:39:02.704Z,32.25
2023-01-20T08:41:32.692Z,36.15
2023-01-20T08:44:00.560Z,34.63
2023-01-20T08:46:27.305Z,34.90
2023-01-20T08:48:54.948Z,34.08
2023-01-20T08:51:32.283Z,34.40
2023-01-20T08:53:59.180Z,35.38
2023-01-20T08:56:25.982Z,34.47
2023-01-20T08:58:53.885Z,36.03
2023-01-20T09:01:23.292Z,33.05
2023-01-20T09:04:04.392Z,32.78
2023-01-20T09:06:38.491Z,36.83
2023-01-20T09:09:05.233Z,37.33
2023-01-20T09:11:31.838Z,37.03
2023-01-20T09:13:58.313Z,33.85
2023-01-20T09:16:24.730Z,34.15
2023-01-20T09:18:51.373Z,32.42
2023-01-20T09:21:17.759Z,33.95
2023-01-20T09:23:44.373Z,35.65
2023-01-20T09:26:11.046Z,36.05
2023-01-20T09:28:37.497Z,36.70
2023-01-20T09:31:07.226Z,36.00
2023-01-20T09:33:38.012Z,31.52
2023-01-20T09:36:07.206Z,32.58
2023-01-20T09:38:52.256Z,32.63
2023-01-20T09:41:47.157Z,47.95
2023-01-20T09:44:32.275Z,39.40
2023-01-20T09:47:21.062Z,42.42
2023-01-20T09:50:59.553Z,40.42
2023-01-20T09:53:34.525Z,38.38
2023-01-20T09:56:08.733Z,34.33
2023-01-20T09:58:39.980Z,45.95
2023-01-20T10:01:30.358Z,35.38
2023-01-20T10:04:06.381Z,32.38
2023-01-20T10:06:39.497Z,30.60
2023-01-20T10:09:10.611Z,29.88
2023-01-20T10:11:43.306Z,31.67
2023-01-20T10:14:23.972Z,32.08
2023-01-20T10:17:32.294Z,31.55
2023-01-20T10:20:05.028Z,29.88
2023-01-20T10:22:43.325Z,29.15
2023-01-20T10:25:20.029Z,30.60
2023-01-20T10:28:00.359Z,30.70
2023-01-20T10:33:03.933Z,29.98
2023-01-20T10:35:37.020Z,30.13
2023-01-20T10:38:07.661Z,30.58
2023-01-20T10:40:46.366Z,28.00
2023-01-20T10:43:15.323Z,28.60
2023-01-20T10:46:01.255Z,33.97
2023-01-20T10:49:13.055Z,34.95
2023-01-20T10:51:59.960Z,27.63
2023-01-20T10:54:48.583Z,28.27
2023-01-20T10:57:16.103Z,27.58
2023-01-20T10:59:51.068Z,28.15
2023-01-20T11:02:24.577Z,26.17
2023-01-20T11:04:57.368Z,27.52
2023-01-20T11:07:23.814Z,27.15
2023-01-20T11:09:50.246Z,27.10
2023-01-20T11:12:20.396Z,25.55
2023-01-20T11:17:18.108Z,25.45
2023-01-20T11:19:48.737Z,25.55
2023-01-20T11:22:22.465Z,31.15
2023-01-20T11:24:55.192Z,28.45
2023-01-20T11:27:24.596Z,27.67
2023-01-20T11:29:56.994Z,28.60
2023-01-20T11:32:25.271Z,26.90
2023-01-20T11:34:52.362Z,27.05
2023-01-20T11:37:21.699Z,26.80
2023-01-20T11:39:54.097Z,27.67
2023-01-20T11:42:25.896Z,27.63
2023-01-20T11:45:19.881Z,27.15
2023-01-20T11:48:00.524Z,27.17
2023-01-20T11:50:38.624Z,25.15
2023-01-20T11:53:15.970Z,25.83
2023-01-20T11:55:55.758Z,27.00
2023-01-20T11:58:28.461Z,27.92
2023-01-20T12:01:04.309Z,27.33
2023-01-20T12:03:58.528Z,27.50
2023-01-20T12:06:28.951Z,25.67
2023-01-20T12:09:15.526Z,26.88
2023-01-20T12:12:12.951Z,26.70
2023-01-20T12:14:47.166Z,27.92
2023-01-20T12:17:22.861Z,25.88
2023-01-20T12:20:11.181Z,29.00
2023-01-20T12:23:04.503Z,27.20
2023-01-20T12:25:36.747Z,28.25
2023-01-20T12:28:12.395Z,27.92
2023-01-20T12:30:47.622Z,27.27
2023-01-20T12:33:23.196Z,28.60
2023-01-20T12:36:20.279Z,28.45
2023-01-20T12:39:12.497Z,27.88
2023-01-20T12:41:41.791Z,29.30
2023-01-20T12:44:57.541Z,28.47
2023-01-20T12:47:33.071Z,29.63
2023-01-20T12:50:30.080Z,29.90
2023-01-20T12:53:17.111Z,28.05
2023-01-20T12:56:06.734Z,24.13
2023-01-20T12:59:08.173Z,27.88
2023-01-20T13:01:42.698Z,28.67
2023-01-20T13:04:33.890Z,25.38
2023-01-20T13:07:23.419Z,29.13
2023-01-20T13:10:16.131Z,28.13
2023-01-20T13:13:04.082Z,25.52
2023-01-20T13:15:37.143Z,25.92
2023-01-20T13:18:30.821Z,25.42
2023-01-20T13:20:57.296Z,29.98
2023-01-20T13:23:27.722Z,27.92
2023-01-20T13:25:55.562Z,27.38
2023-01-20T13:28:25.604Z,25.50
2023-01-20T13:30:54.946Z,25.13
2023-01-20T13:33:42.150Z,25.20
2023-01-20T13:36:21.160Z,26.30
2023-01-20T13:38:50.205Z,24.67
2023-01-20T13:41:49.118Z,24.50
2023-01-20T13:44:42.488Z,25.75
2023-01-20T13:47:11.356Z,23.63
2023-01-20T13:49:48.798Z,24.50
2023-01-20T13:52:16.187Z,24.42
2023-01-20T13:54:44.991Z,23.90
2023-01-20T13:57:23.093Z,23.40
2023-01-20T13:59:50.294Z,24.92
2023-01-20T14:02:22.749Z,23.90
2023-01-20T14:04:49.950Z,23.77
2023-01-20T14:07:26.540Z,24.98
2023-01-20T14:09:58.495Z,23.75
2023-01-20T14:12:25.925Z,24.38
2023-01-20T14:14:53.344Z,24.17
2023-01-20T14:17:22.895Z,24.15
2023-01-20T14:19:54.812Z,24.15
2023-01-20T14:22:21.249Z,23.88
2023-01-20T14:24:50.044Z,23.33
2023-01-20T14:27:27.085Z,23.65
2023-01-20T14:29:55.940Z,25.83
2023-01-20T14:32:25.947Z,23.83
2023-01-20T14:34:56.373Z,27.67
2023-01-20T14:37:28.864Z,25.33
2023-01-20T14:39:58.670Z,24.63
2023-01-20T14:42:28.057Z,25.83
2023-01-20T14:44:56.231Z,24.13
2023-01-20T14:47:25.887Z,25.55
2023-01-20T14:49:55.012Z,24.70
2023-01-20T14:52:30.918Z,26.02
2023-01-20T14:54:57.836Z,27.95
2023-01-20T14:57:40.518Z,24.88
2023-01-20T15:00:20.363Z,24.65
2023-01-20T15:03:05.379Z,25.33
2023-01-20T15:05:39.210Z,24.42
2023-01-20T15:08:11.435Z,25.85
2023-01-20T15:10:42.079Z,26.02
2023-01-20T15:13:26.564Z,26.20
2023-01-20T15:16:06.923Z,25.40
2023-01-20T15:18:33.485Z,30.35
2023-01-20T15:21:17.949Z,43.22
2023-01-20T15:23:45.783Z,35.28
2023-01-20T15:26:26.611Z,43.90
2023-01-20T15:28:54.500Z,35.40
2023-01-20T15:31:21.681Z,38.47
2023-01-20T15:33:48.830Z,36.75
2023-01-20T15:36:24.286Z,36.03
2023-01-20T15:38:50.881Z,31.45
2023-01-20T15:41:17.387Z,30.33
2023-01-20T15:43:45.497Z,32.35
2023-01-20T15:46:13.352Z,35.65
2023-01-20T15:48:39.943Z,32.22
2023-01-20T15:51:07.172Z,32.70
2023-01-20T15:53:34.985Z,34.88
2023-01-20T15:56:01.951Z,38.67
2023-01-20T15:58:32.971Z,33.05
2023-01-20T16:01:00.112Z,34.17
2023-01-20T16:03:28.040Z,38.95
2023-01-20T16:05:55.682Z,40.28
2023-01-20T16:08:25.744Z,39.83
2023-01-20T16:10:52.191Z,34.65
2023-01-20T16:13:18.666Z,41.30
2023-01-20T16:15:45.170Z,35.85
2023-01-20T16:18:13.583Z,43.42
2023-01-20T16:20:41.022Z,37.45
2023-01-20T16:23:07.747Z,33.78
2023-01-20T16:25:34.251Z,37.20
2023-01-20T16:28:01.207Z,39.97
2023-01-20T16:30:28.125Z,51.28
2023-01-20T16:32:54.895Z,42.22
2023-01-20T16:35:23.692Z,41.70
2023-01-20T16:37:50.190Z,44.92
2023-01-20T16:40:19.745Z,42.53
2023-01-20T16:42:46.758Z,45.05
2023-01-20T16:45:26.309Z,44.13
2023-01-20T16:47:52.947Z,42.88
2023-01-20T16:50:19.459Z,41.78
2023-01-20T16:52:46.807Z,43.35
2023-01-20T16:55:13.951Z,44.83
2023-01-20T16:57:40.593Z,44.45
2023-01-20T17:00:08.551Z,43.35
2023-01-20T17:02:35.017Z,40.10
2023-01-20T17:05:01.429Z,48.30
2023-01-20T17:07:28.024Z,46.58
2023-01-20T17:09:54.481Z,47.28
2023-01-20T17:12:20.854Z,45.15
2023-01-20T17:14:47.241Z,46.35
2023-01-20T17:17:13.712Z,44.60
2023-01-20T17:19:40.080Z,42.15
2023-01-20T17:22:06.829Z,42.65
2023-01-20T17:24:33.419Z,42.97
2023-01-20T17:26:59.890Z,42.05
2023-01-20T17:29:27.027Z,42.95
2023-01-20T17:31:53.742Z,44.47
2023-01-20T17:34:20.195Z,40.28
2023-01-20T17:36:48.252Z,41.78
2023-01-20T17:39:14.676Z,44.05
2023-01-20T17:41:41.303Z,43.33
2023-01-20T17:44:07.868Z,41.70
2023-01-20T17:46:34.300Z,41.53
2023-01-20T17:49:06.757Z,43.75
2023-01-20T17:51:33.323Z,43.80
2023-01-20T17:54:03.782Z,42.65
2023-01-20T17:56:31.105Z,40.90
2023-01-20T17:58:57.761Z,42.05
2023-01-20T18:01:27.610Z,40.75
2023-01-20T18:03:56.389Z,40.15
2023-01-20T18:06:24.493Z,41.53
2023-01-20T18:08:53.682Z,38.20
2023-01-20T18:11:22.862Z,38.97
2023-01-20T18:13:51.224Z,39.20
2023-01-20T18:16:20.107Z,42.55
2023-01-20T18:18:48.373Z,45.28
2023-01-20T18:21:17.650Z,40.88
2023-01-20T18:23:45.226Z,43.07
2023-01-20T18:26:13.775Z,46.45
2023-01-20T18:28:41.751Z,41.58
2023-01-20T18:31:11.489Z,38.35
2023-01-20T18:33:41.505Z,38.20
2023-01-20T18:36:09.649Z,41.00
2023-01-20T18:38:36.280Z,38.67
2023-01-20T18:41:03.167Z,43.00
2023-01-20T18:43:30.077Z,39.45
2023-01-20T18:45:56.509Z,38.90
2023-01-20T18:48:23.241Z,45.03
2023-01-20T18:50:49.656Z,41.17
2023-01-20T18:53:16.156Z,42.45
2023-01-20T18:55:42.660Z,42.72
2023-01-20T18:58:09.682Z,44.47
2023-01-20T19:00:36.127Z,43.47
2023-01-20T19:03:02.586Z,41.58
2023-01-20T19:05:31.362Z,43.50
2023-01-20T19:07:57.749Z,42.03
2023-01-20T19:10:24.269Z,43.83
2023-01-20T19:12:51.933Z,47.13
2023-01-20T19:15:18.686Z,45.58
2023-01-20T19:17:45.089Z,43.20
2023-01-20T19:20:11.635Z,45.33
2023-01-20T19:22:39.162Z,46.83
2023-01-20T19:25:06.429Z,42.03
2023-01-20T19:27:32.881Z,47.25
2023-01-20T19:29:59.359Z,43.92
2023-01-20T19:32:25.991Z,46.90
2023-01-20T19:34:52.713Z,49.75
2023-01-20T19:37:19.280Z,43.72
2023-01-20T19:39:45.684Z,46.38
2023-01-20T19:42:12.066Z,44.40
2023-01-20T19:44:38.893Z,43.65
2023-01-20T19:47:05.742Z,45.75
2023-01-20T19:49:32.165Z,45.65
2023-01-20T19:51:59.801Z,46.90
2023-01-20T19:54:28.500Z,46.40
2023-01-20T19:56:55.017Z,50.58
2023-01-20T19:59:21.533Z,47.15
2023-01-20T20:01:47.976Z,47.10
2023-01-20T20:04:14.476Z,48.53
2023-01-20T20:06:44.701Z,47.05
2023-01-20T20:09:16.472Z,43.38
2023-01-20T20:11:43.433Z,43.33
2023-01-20T20:14:14.012Z,43.00
2023-01-20T20:16:41.070Z,44.72
2023-01-20T20:19:09.847Z,44.58
2023-01-20T20:21:36.441Z,46.33
2023-01-20T20:24:05.415Z,43.47
2023-01-20T20:26:40.941Z,43.33
2023-01-20T20:29:08.636Z,42.58
2023-01-20T20:31:37.329Z,43.42
2023-01-20T20:34:05.557Z,46.15
2023-01-20T20:36:33.455Z,45.03
2023-01-20T20:39:01.393Z,45.90
2023-01-20T20:41:31.040Z,47.08
2023-01-20T20:43:59.255Z,45.83
2023-01-20T20:46:26.405Z,47.95
2023-01-20T20:48:54.725Z,46.13
2023-01-20T20:51:23.839Z,46.13
2023-01-20T20:53:54.520Z,48.47
2023-01-20T20:56:21.404Z,45.38
2023-01-20T20:59:00.361Z,46.35
2023-01-20T21:01:29.097Z,45.95
2023-01-20T21:03:57.542Z,44.58
2023-01-20T21:06:24.112Z,45.15
2023-01-20T21:08:50.565Z,44.05
2023-01-20T21:11:17.094Z,41.83
2023-01-20T21:13:44.402Z,46.42
2023-01-20T21:16:15.173Z,45.17
2023-01-20T21:18:41.727Z,44.13
2023-01-20T21:21:12.496Z,43.78
2023-01-20T21:23:40.586Z,45.20
2023-01-20T21:26:11.592Z,46.42
2023-01-20T21:28:39.783Z,44.33
2023-01-20T21:31:07.809Z,44.88
2023-01-20T21:33:35.702Z,43.45
2023-01-20T21:36:04.011Z,47.10
2023-01-20T21:38:31.386Z,43.30
2023-01-20T21:41:03.889Z,44.85
2023-01-20T21:43:53.347Z,46.25
2023-01-20T21:46:20.529Z,42.38
2023-01-20T21:49:06.307Z,48.03
2023-01-20T21:51:51.661Z,43.83
2023-01-20T21:54:19.134Z,44.17
2023-01-20T21:56:45.888Z,43.72
2023-01-20T21:59:12.428Z,41.33
2023-01-20T22:01:39.873Z,41.40
2023-01-20T22:04:06.429Z,62.25
2023-01-20T22:06:32.865Z,52.92
2023-01-20T22:08:59.646Z,44.10
2023-01-20T22:11:26.931Z,43.83
2023-01-20T22:13:56.800Z,42.15
2023-01-20T22:16:24.511Z,40.03
2023-01-20T22:18:51.995Z,39.85
2023-01-20T22:21:19.021Z,38.92
2023-01-20T22:23:46.119Z,42.38
2023-01-20T22:26:12.683Z,35.45
2023-01-20T22:28:39.780Z,38.38
2023-01-20T22:31:19.926Z,33.70
2023-01-20T22:36:16.362Z,32.45
2023-01-20T22:38:43.047Z,36.45
2023-01-20T22:41:09.636Z,32.88
2023-01-20T22:43:37.859Z,36.35
2023-01-20T22:46:04.970Z,34.50
2023-01-20T22:48:33.334Z,28.65
2023-01-20T22:51:17.136Z,30.33
2023-01-20T22:53:44.077Z,30.60
2023-01-20T22:56:13.698Z,27.60
2023-01-20T22:58:40.736Z,28.65
2023-01-20T23:01:19.704Z,27.80
2023-01-20T23:03:46.927Z,31.42
2023-01-20T23:06:14.109Z,30.27
2023-01-20T23:08:41.372Z,33.90
2023-01-20T23:11:14.204Z,33.15
2023-01-20T23:13:41.024Z,31.73
2023-01-20T23:16:10.822Z,33.40
2023-01-20T23:18:37.227Z,33.67
2023-01-20T23:21:05.783Z,32.75
2023-01-20T23:23:33.163Z,33.45
2023-01-20T23:26:09.680Z,34.83
2023-01-20T23:28:36.474Z,32.63
2023-01-20T23:31:06.531Z,31.20
2023-01-20T23:33:33.873Z,31.00
2023-01-20T23:36:13.988Z,31.05
2023-01-20T23:38:41.086Z,29.42
2023-01-20T23:41:07.659Z,30.85
2023-01-20T23:43:34.513Z,30.67
2023-01-20T23:46:03.655Z,29.67
2023-01-20T23:48:30.457Z,30.25
2023-01-20T23:50:59.787Z,30.50
2023-01-20T23:53:28.038Z,32.93
2023-01-20T23:56:06.934Z,30.77
2023-01-20T23:58:33.711Z,30.90
